Time;durP1;ratioP1;P1;durP2;ratioP2;P2;SDS_P1;SDS_P2;PMS_P1;PMS_P2;Temp;Humidity;BMP_temperature;BMP_pressure;BME280_temperature;BME280_humidity;BME280_pressure;Samples;Min_cycle;Max_cycle;Signal;HPM_P1;HPM_P2
2022/10/22 00:01:27;;;;;;;;;;;;;;;;;;5087136;28;19911;-50
2022/10/22 00:03:52;;;;;;;;;;;;;;;;;;5087976;28;19919;-49
2022/10/22 00:06:18;;;;;;;;;;;;;;;;;;5086300;28;19908;-50
2022/10/22 00:08:44;;;;;;;;;;;;;;;;;;5076454;28;19915;-50
2022/10/22 00:11:10;;;;;;;;;;;;;;;;;;5086229;28;19968;-52
2022/10/22 00:13:36;;;;;;;;;;;;;;;;;;5085076;28;19966;-50
2022/10/22 00:16:03;;;;;;;;;;;;;;;;;;5087341;28;20003;-51
2022/10/22 00:18:29;;;;;;;;;;;;;;;;;;5084924;28;19915;-50
2022/10/22 00:20:55;;;;;;;;;;;;;;;;;;5080306;28;19908;-48
2022/10/22 00:23:21;;;;;;;;;;;;;;;;;;5087865;28;19986;-49
2022/10/22 00:25:47;;;;;;;;;;;;;;;;;;5086617;28;20347;-52
2022/10/22 00:28:13;;;;;;;;;;;;;;;;;;5087397;28;19925;-48
2022/10/22 00:30:39;;;;;;;;;;;;;;;;;;5087676;28;19908;-51
2022/10/22 00:33:05;;;;;;;;;;;;;;;;;;5088873;28;19915;-51
2022/10/22 00:35:31;;;;;;;;;;;;;;;;;;5087341;28;19927;-49
2022/10/22 00:37:57;;;;;;;;;;;;;;;;;;5089222;28;19908;-48
2022/10/22 00:40:23;;;;;;;;;;;;;;;;;;5072418;28;20329;-50
2022/10/22 00:42:49;;;;;;;;;;;;;;;;;;5068534;28;19908;-48
2022/10/22 00:45:15;;;;;;;;;;;;;;;;;;5068128;28;20353;-52
2022/10/22 00:47:41;;;;;;;;;;;;;;;;;;5068756;28;19904;-47
2022/10/22 00:50:07;;;;;;;;;;;;;;;;;;5080320;28;19911;-50
2022/10/22 00:52:33;;;;;;;;;;;;;;;;;;5088860;28;20001;-49
2022/10/22 00:54:59;;;;;;;;;;;;;;;;;;5089340;28;19911;-50
2022/10/22 00:57:24;;;;;;;;;;;;;;;;;;5087974;28;19940;-51
2022/10/22 00:59:50;;;;;;;;;;;;;;;;;;5080850;28;19991;-49
2022/10/22 01:02:16;;;;;;;;;;;;;;;;;;5087153;28;19931;-47
2022/10/22 01:04:42;;;;;;;;;;;;;;;;;;5088665;28;19953;-51
2022/10/22 01:07:08;;;;;;;;;;;;;;;;;;5088150;28;19903;-51
2022/10/22 01:09:34;;;;;;;;;;;;;;;;;;5085938;28;19987;-48
2022/10/22 01:12:00;;;;;;;;;;;;;;;;;;5086907;28;20256;-50
2022/10/22 01:14:26;;;;;;;;;;;;;;;;;;5088389;28;20362;-50
2022/10/22 01:16:51;;;;;;;;;;;;;;;;;;5079305;28;20398;-50
2022/10/22 01:19:17;;;;;;;;;;;;;;;;;;5067846;28;19914;-49
2022/10/22 01:21:43;;;;;;;;;;;;;;;;;;5074531;28;19949;-48
2022/10/22 01:24:09;;;;;;;;;;;;;;;;;;5087467;28;19915;-49
2022/10/22 01:26:35;;;;;;;;;;;;;;;;;;5087674;28;20375;-49
2022/10/22 01:29:01;;;;;;;;;;;;;;;;;;5088393;28;19916;-47
2022/10/22 01:31:27;;;;;;;;;;;;;;;;;;5086362;28;20366;-49
2022/10/22 01:33:53;;;;;;;;;;;;;;;;;;5087833;28;20291;-50
2022/10/22 01:36:19;;;;;;;;;;;;;;;;;;5087618;28;19949;-50
2022/10/22 01:38:44;;;;;;;;;;;;;;;;;;5087703;28;20374;-50
2022/10/22 01:41:10;;;;;;;;;;;;;;;;;;5085899;28;19915;-50
2022/10/22 01:43:36;;;;;;;;;;;;;;;;;;5086803;28;20383;-50
2022/10/22 01:46:02;;;;;;;;;;;;;;;;;;5088394;28;19908;-48
2022/10/22 01:48:28;;;;;;;;;;;;;;;;;;5088188;28;20344;-51
2022/10/22 01:50:54;;;;;;;;;;;;;;;;;;5087883;28;19953;-50
2022/10/22 01:53:20;;;;;;;;;;;;;;;;;;5086477;28;19912;-48
2022/10/22 01:55:45;;;;;;;;;;;;;;;;;;5088161;28;19957;-50
2022/10/22 01:58:11;;;;;;;;;;;;;;;;;;5089372;28;20046;-50
2022/10/22 02:00:37;;;;;;;;;;;;;;;;;;5092087;28;19943;-50
2022/10/22 02:03:03;;;;;;;;;;;;;;;;;;5088649;28;19908;-47
2022/10/22 02:05:29;;;;;;;;;;;;;;;;;;5091615;28;19908;-50
2022/10/22 02:07:55;;;;;;;;;;;;;;;;;;5091519;28;19926;-50
2022/10/22 02:10:21;;;;;;;;;;;;;;;;;;5091629;28;19940;-50
2022/10/22 02:12:47;;;;;;;;;;;;;;;;;;5090109;28;19908;-49
2022/10/22 02:15:12;;;;;;;;;;;;;;;;;;5071266;28;19904;-52
2022/10/22 02:17:38;;;;;;;;;;;;;;;;;;5071322;28;19911;-50
2022/10/22 02:20:04;;;;;;;;;;;;;;;;;;5072660;28;19911;-52
2022/10/22 02:22:30;;;;;;;;;;;;;;;;;;5091947;28;19958;-49
2022/10/22 02:24:56;;;;;;;;;;;;;;;;;;5090665;28;19914;-50
2022/10/22 02:27:22;;;;;;;;;;;;;;;;;;5090977;28;19969;-50
2022/10/22 02:29:48;;;;;;;;;;;;;;;;;;5091626;28;19954;-51
2022/10/22 02:32:14;;;;;;;;;;;;;;;;;;5090447;28;20423;-50
2022/10/22 02:34:40;;;;;;;;;;;;;;;;;;5089514;28;19915;-50
2022/10/22 02:37:05;;;;;;;;;;;;;;;;;;5089631;28;19904;-51
2022/10/22 02:39:31;;;;;;;;;;;;;;;;;;5090487;28;19948;-50
2022/10/22 02:41:58;;;;;;;;;;;;;;;;;;5090046;28;19958;-49
2022/10/22 02:44:24;;;;;;;;;;;;;;;;;;5088122;28;20344;-49
2022/10/22 02:46:50;;;;;;;;;;;;;;;;;;5091126;28;19969;-52
2022/10/22 02:49:16;;;;;;;;;;;;;;;;;;5090842;28;19904;-48
2022/10/22 02:51:41;;;;;;;;;;;;;;;;;;5091003;28;20394;-49
2022/10/22 02:54:07;;;;;;;;;;;;;;;;;;5089675;28;19912;-51
2022/10/22 02:56:33;;;;;;;;;;;;;;;;;;5090904;28;20375;-50
2022/10/22 02:58:59;;;;;;;;;;;;;;;;;;5091504;28;20016;-52
2022/10/22 03:01:25;;;;;;;;;;;;;;;;;;5089811;28;19950;-51
2022/10/22 03:03:51;;;;;;;;;;;;;;;;;;5089714;28;20347;-51
2022/10/22 03:06:17;;;;;;;;;;;;;;;;;;5090260;28;19911;-51
2022/10/22 03:08:43;;;;;;;;;;;;;;;;;;5089746;28;20390;-51
2022/10/22 03:11:08;;;;;;;;;;;;;;;;;;5089799;28;19907;-48
2022/10/22 03:13:34;;;;;;;;;;;;;;;;;;5079076;28;19916;-49
2022/10/22 03:16:00;;;;;;;;;;;;;;;;;;5075257;28;19904;-50
2022/10/22 03:18:26;;;;;;;;;;;;;;;;;;5069953;28;20383;-51
2022/10/22 03:20:52;;;;;;;;;;;;;;;;;;5070247;28;19909;-49
2022/10/22 03:23:18;;;;;;;;;;;;;;;;;;5077759;28;19945;-49
2022/10/22 03:25:44;;;;;;;;;;;;;;;;;;5089627;28;19908;-47
2022/10/22 03:28:10;;;;;;;;;;;;;;;;;;5090111;28;19912;-52
2022/10/22 03:30:35;;;;;;;;;;;;;;;;;;5090029;28;19908;-48
2022/10/22 03:33:01;;;;;;;;;;;;;;;;;;5089880;28;19951;-50
2022/10/22 03:35:27;;;;;;;;;;;;;;;;;;5089904;28;19904;-50
2022/10/22 03:37:53;;;;;;;;;;;;;;;;;;5090022;28;19907;-48
2022/10/22 03:40:19;;;;;;;;;;;;;;;;;;5089881;28;19904;-51
2022/10/22 03:42:45;;;;;;;;;;;;;;;;;;5088737;28;20383;-51
2022/10/22 03:45:11;;;;;;;;;;;;;;;;;;5090225;28;19947;-50
2022/10/22 03:47:37;;;;;;;;;;;;;;;;;;5089440;28;19904;-52
2022/10/22 03:50:03;;;;;;;;;;;;;;;;;;5090464;28;19957;-50
2022/10/22 03:52:28;;;;;;;;;;;;;;;;;;5088875;28;19915;-49
2022/10/22 03:54:54;;;;;;;;;;;;;;;;;;5088931;28;20000;-50
2022/10/22 03:57:20;;;;;;;;;;;;;;;;;;5089582;28;20365;-51
2022/10/22 03:59:46;;;;;;;;;;;;;;;;;;5089535;28;19939;-50
2022/10/22 04:02:12;;;;;;;;;;;;;;;;;;5089093;28;19912;-51
2022/10/22 04:04:38;;;;;;;;;;;;;;;;;;5088214;28;20323;-52
2022/10/22 04:07:04;;;;;;;;;;;;;;;;;;5089864;28;19954;-50
2022/10/22 04:09:30;;;;;;;;;;;;;;;;;;5089757;28;19904;-49
2022/10/22 04:11:56;;;;;;;;;;;;;;;;;;5089328;28;20311;-50
2022/10/22 04:14:21;;;;;;;;;;;;;;;;;;5073341;28;19912;-50
2022/10/22 04:16:47;;;;;;;;;;;;;;;;;;5068952;28;20360;-48
2022/10/22 04:19:13;;;;;;;;;;;;;;;;;;5068858;28;19994;-50
2022/10/22 04:21:39;;;;;;;;;;;;;;;;;;5068453;28;19938;-51
2022/10/22 04:24:05;;;;;;;;;;;;;;;;;;5081611;28;19914;-50
2022/10/22 04:26:31;;;;;;;;;;;;;;;;;;5089646;28;20268;-50
2022/10/22 04:28:57;;;;;;;;;;;;;;;;;;5088853;28;19912;-51
2022/10/22 04:31:23;;;;;;;;;;;;;;;;;;5088181;28;20375;-51
2022/10/22 04:33:48;;;;;;;;;;;;;;;;;;5086711;28;19911;-49
2022/10/22 04:36:14;;;;;;;;;;;;;;;;;;5088885;28;20374;-48
2022/10/22 04:38:40;;;;;;;;;;;;;;;;;;5089035;28;19911;-51
2022/10/22 04:41:06;;;;;;;;;;;;;;;;;;5088904;28;19904;-51
2022/10/22 04:43:32;;;;;;;;;;;;;;;;;;5086782;28;20433;-50
2022/10/22 04:45:58;;;;;;;;;;;;;;;;;;5088896;28;19958;-50
2022/10/22 04:48:24;;;;;;;;;;;;;;;;;;5088421;28;20374;-48
2022/10/22 04:50:50;;;;;;;;;;;;;;;;;;5088955;28;19904;-50
2022/10/22 04:53:15;;;;;;;;;;;;;;;;;;5086639;28;19915;-47
2022/10/22 04:55:41;;;;;;;;;;;;;;;;;;5088515;28;19908;-51
2022/10/22 04:58:07;;;;;;;;;;;;;;;;;;5088805;28;19969;-50
2022/10/22 05:00:33;;;;;;;;;;;;;;;;;;5089197;28;19904;-49
2022/10/22 05:02:59;;;;;;;;;;;;;;;;;;5087626;28;19998;-50
2022/10/22 05:05:25;;;;;;;;;;;;;;;;;;5086785;28;19904;-51
2022/10/22 05:07:51;;;;;;;;;;;;;;;;;;5087537;28;19904;-49
2022/10/22 05:10:17;;;;;;;;;;;;;;;;;;5086857;28;19965;-48
2022/10/22 05:12:42;;;;;;;;;;;;;;;;;;5086436;28;19922;-53
2022/10/22 05:15:08;;;;;;;;;;;;;;;;;;5086539;28;20204;-49
2022/10/22 05:17:34;;;;;;;;;;;;;;;;;;5087441;28;20422;-50
2022/10/22 05:20:00;;;;;;;;;;;;;;;;;;5087039;28;20268;-48
2022/10/22 05:22:26;;;;;;;;;;;;;;;;;;5086498;28;20479;-50
2022/10/22 05:24:52;;;;;;;;;;;;;;;;;;5067121;28;20299;-47
2022/10/22 05:27:18;;;;;;;;;;;;;;;;;;5078897;28;20425;-51
2022/10/22 05:29:44;;;;;;;;;;;;;;;;;;5088464;28;19985;-50
2022/10/22 05:32:09;;;;;;;;;;;;;;;;;;5088282;28;20377;-52
2022/10/22 05:34:35;;;;;;;;;;;;;;;;;;5074289;28;19912;-51
2022/10/22 05:37:01;;;;;;;;;;;;;;;;;;5072624;28;20295;-50
2022/10/22 05:39:27;;;;;;;;;;;;;;;;;;5081531;28;19908;-51
2022/10/22 05:41:53;;;;;;;;;;;;;;;;;;5092340;28;19912;-51
2022/10/22 05:44:19;;;;;;;;;;;;;;;;;;5091880;28;19904;-50
2022/10/22 05:46:45;;;;;;;;;;;;;;;;;;5092343;28;19904;-49
2022/10/22 05:49:11;;;;;;;;;;;;;;;;;;5090284;28;19948;-51
2022/10/22 05:51:37;;;;;;;;;;;;;;;;;;5092669;28;19965;-50
2022/10/22 05:54:02;;;;;;;;;;;;;;;;;;5092668;28;19908;-50
2022/10/22 05:56:28;;;;;;;;;;;;;;;;;;5091593;28;19949;-50
2022/10/22 05:58:54;;;;;;;;;;;;;;;;;;5091054;28;19930;-51
2022/10/22 06:01:20;;;;;;;;;;;;;;;;;;5088230;28;20006;-49
2022/10/22 06:03:46;;;;;;;;;;;;;;;;;;5092029;28;20530;-49
2022/10/22 06:06:12;;;;;;;;;;;;;;;;;;5088230;28;19919;-49
2022/10/22 06:08:38;;;;;;;;;;;;;;;;;;5089186;28;20438;-47
2022/10/22 06:11:04;;;;;;;;;;;;;;;;;;5090620;28;19915;-48
2022/10/22 06:13:31;;;;;;;;;;;;;;;;;;5091191;28;20313;-52
2022/10/22 06:15:57;;;;;;;;;;;;;;;;;;5090788;28;20390;-50
2022/10/22 06:18:23;;;;;;;;;;;;;;;;;;5091347;28;19908;-49
2022/10/22 06:20:49;;;;;;;;;;;;;;;;;;5091049;28;19935;-51
2022/10/22 06:23:15;;;;;;;;;;;;;;;;;;5085234;28;19960;-50
2022/10/22 06:25:41;;;;;;;;;;;;;;;;;;5084843;28;19916;-50
2022/10/22 06:28:06;;;;;;;;;;;;;;;;;;5077523;28;19916;-47
2022/10/22 06:30:32;;;;;;;;;;;;;;;;;;5071210;28;19939;-50
2022/10/22 06:32:58;;;;;;;;;;;;;;;;;;5071109;28;19928;-49
2022/10/22 06:35:24;;;;;;;;;;;;;;;;;;5080585;28;19908;-52
2022/10/22 06:37:50;;;;;;;;;;;;;;;;;;5091606;28;19971;-50
2022/10/22 06:40:17;;;;;;;;;;;;;;;;;;5090961;28;19911;-51
2022/10/22 06:42:43;;;;;;;;;;;;;;;;;;5091140;28;20417;-49
2022/10/22 06:45:09;;;;;;;;;;;;;;;;;;5090549;28;19904;-50
2022/10/22 06:47:35;;;;;;;;;;;;;;;;;;5086255;28;19916;-51
2022/10/22 06:50:01;;;;;;;;;;;;;;;;;;5083890;28;19908;-47
2022/10/22 06:52:26;;;;;;;;;;;;;;;;;;5082049;28;19912;-49
2022/10/22 06:54:52;;;;;;;;;;;;;;;;;;5074141;28;20050;-49
2022/10/22 06:57:18;;;;;;;;;;;;;;;;;;5073527;28;19929;-50
2022/10/22 06:59:44;;;;;;;;;;;;;;;;;;5073496;28;19969;-51
2022/10/22 07:02:10;;;;;;;;;;;;;;;;;;5077388;28;20003;-48
2022/10/22 07:04:36;;;;;;;;;;;;;;;;;;5074695;28;19919;-51
2022/10/22 07:07:02;;;;;;;;;;;;;;;;;;5081439;28;20257;-47
2022/10/22 07:09:28;;;;;;;;;;;;;;;;;;5081903;28;19915;-50
2022/10/22 07:11:54;;;;;;;;;;;;;;;;;;5090391;28;19931;-50
2022/10/22 07:14:19;;;;;;;;;;;;;;;;;;5090357;28;19908;-49
2022/10/22 07:16:45;;;;;;;;;;;;;;;;;;5090305;28;19981;-49
2022/10/22 07:19:11;;;;;;;;;;;;;;;;;;5086520;28;19904;-50
2022/10/22 07:21:37;;;;;;;;;;;;;;;;;;5087497;28;19915;-51
2022/10/22 07:24:03;;;;;;;;;;;;;;;;;;5090994;28;19904;-48
2022/10/22 07:26:31;;;;;;;;;;;;;;;;;;5088541;28;19916;-48
2022/10/22 07:28:57;;;;;;;;;;;;;;;;;;5089552;28;19919;-49
2022/10/22 07:31:23;;;;;;;;;;;;;;;;;;5084978;28;19908;-49
2022/10/22 07:33:48;;;;;;;;;;;;;;;;;;5070815;28;19963;-48
2022/10/22 07:36:16;;;;;;;;;;;;;;;;;;5069153;28;19911;-50
2022/10/22 07:38:42;;;;;;;;;;;;;;;;;;5070879;28;19915;-49
2022/10/22 07:41:08;;;;;;;;;;;;;;;;;;5073653;28;19914;-50
2022/10/22 07:43:34;;;;;;;;;;;;;;;;;;5090494;28;20003;-49
2022/10/22 07:46:01;;;;;;;;;;;;;;;;;;5090413;28;20411;-52
2022/10/22 07:48:27;;;;;;;;;;;;;;;;;;5088704;28;19908;-51
2022/10/22 07:50:53;;;;;;;;;;;;;;;;;;5090506;28;19904;-48
2022/10/22 07:53:20;;;;;;;;;;;;;;;;;;5090030;28;20367;-51
2022/10/22 07:55:46;;;;;;;;;;;;;;;;;;5087505;28;20290;-49
2022/10/22 07:58:11;;;;;;;;;;;;;;;;;;5089788;28;19908;-48
2022/10/22 08:00:37;;;;;;;;;;;;;;;;;;5090984;28;19911;-47
2022/10/22 08:03:03;;;;;;;;;;;;;;;;;;5090401;28;19900;-47
2022/10/22 08:05:29;;;;;;;;;;;;;;;;;;5089221;28;19908;-50
2022/10/22 08:07:55;;;;;;;;;;;;;;;;;;5090043;28;20007;-48
2022/10/22 08:10:21;;;;;;;;;;;;;;;;;;5089949;28;19904;-48
2022/10/22 08:12:47;;;;;;;;;;;;;;;;;;5089955;28;19911;-51
2022/10/22 08:15:13;;;;;;;;;;;;;;;;;;5089418;28;19911;-48
2022/10/22 08:17:38;;;;;;;;;;;;;;;;;;5070102;28;19909;-48
2022/10/22 08:20:04;;;;;;;;;;;;;;;;;;5069762;28;19904;-48
2022/10/22 08:22:30;;;;;;;;;;;;;;;;;;5069464;28;20011;-49
2022/10/22 08:24:56;;;;;;;;;;;;;;;;;;5072761;28;19907;-47
2022/10/22 08:27:22;;;;;;;;;;;;;;;;;;5089390;28;19916;-48
2022/10/22 08:29:48;;;;;;;;;;;;;;;;;;5082381;28;19911;-49
2022/10/22 08:32:14;;;;;;;;;;;;;;;;;;5074474;28;19959;-48
2022/10/22 08:34:39;;;;;;;;;;;;;;;;;;5069235;28;19908;-47
2022/10/22 08:37:07;;;;;;;;;;;;;;;;;;5068704;28;19908;-49
2022/10/22 08:39:33;;;;;;;;;;;;;;;;;;5075838;28;19927;-47
2022/10/22 08:41:59;;;;;;;;;;;;;;;;;;5082236;28;19908;-47
2022/10/22 08:44:25;;;;;;;;;;;;;;;;;;5088516;28;19939;-49
2022/10/22 08:46:51;;;;;;;;;;;;;;;;;;5088388;28;20430;-47
2022/10/22 08:49:17;;;;;;;;;;;;;;;;;;5072052;28;19915;-47
2022/10/22 08:51:43;;;;;;;;;;;;;;;;;;5074184;28;19908;-48
2022/10/22 08:54:09;;;;;;;;;;;;;;;;;;5069780;28;19919;-50
2022/10/22 08:56:35;;;;;;;;;;;;;;;;;;5067865;28;19978;-50
2022/10/22 08:59:00;;;;;;;;;;;;;;;;;;5068449;28;19998;-48
2022/10/22 09:01:26;;;;;;;;;;;;;;;;;;5068111;28;19908;-47
2022/10/22 09:03:52;;;;;;;;;;;;;;;;;;5068355;28;19951;-48
2022/10/22 09:06:18;;;;;;;;;;;;;;;;;;5067795;28;19911;-49
2022/10/22 09:08:44;;;;;;;;;;;;;;;;;;5068105;28;20302;-49
2022/10/22 09:11:10;;;;;;;;;;;;;;;;;;5068671;28;20007;-48
2022/10/22 09:13:36;;;;;;;;;;;;;;;;;;5072483;28;19964;-47
2022/10/22 09:16:02;;;;;;;;;;;;;;;;;;5088437;28;19912;-50
2022/10/22 09:18:28;;;;;;;;;;;;;;;;;;5074418;28;19904;-48
2022/10/22 09:20:54;;;;;;;;;;;;;;;;;;5068233;28;19947;-47
2022/10/22 09:23:20;;;;;;;;;;;;;;;;;;5067595;28;19908;-49
2022/10/22 09:25:47;;;;;;;;;;;;;;;;;;5067845;28;19905;-48
2022/10/22 09:28:13;;;;;;;;;;;;;;;;;;5067975;28;19912;-48
2022/10/22 09:30:40;;;;;;;;;;;;;;;;;;5074240;28;19922;-48
2022/10/22 09:33:06;;;;;;;;;;;;;;;;;;5084346;28;19912;-49
2022/10/22 09:35:32;;;;;;;;;;;;;;;;;;5076567;28;20299;-48
2022/10/22 09:37:58;;;;;;;;;;;;;;;;;;5067820;28;19904;-48
2022/10/22 09:40:24;;;;;;;;;;;;;;;;;;5067803;28;20268;-47
2022/10/22 09:42:49;;;;;;;;;;;;;;;;;;5067684;28;19919;-50
2022/10/22 09:45:15;;;;;;;;;;;;;;;;;;5067603;28;19905;-52
2022/10/22 09:47:41;;;;;;;;;;;;;;;;;;5068273;28;19914;-47
2022/10/22 09:50:07;;;;;;;;;;;;;;;;;;5068005;28;19936;-51
2022/10/22 09:52:33;;;;;;;;;;;;;;;;;;5079586;28;20406;-48
2022/10/22 09:54:59;;;;;;;;;;;;;;;;;;5067954;28;19958;-49
2022/10/22 09:57:26;;;;;;;;;;;;;;;;;;5067291;28;19904;-51
2022/10/22 09:59:52;;;;;;;;;;;;;;;;;;5067738;28;20388;-51
2022/10/22 10:02:18;;;;;;;;;;;;;;;;;;5069879;28;19908;-52
2022/10/22 10:04:44;;;;;;;;;;;;;;;;;;5071330;28;19908;-48
2022/10/22 10:07:10;;;;;;;;;;;;;;;;;;5083196;28;19915;-48
2022/10/22 10:09:36;;;;;;;;;;;;;;;;;;5079384;28;19908;-50
2022/10/22 10:12:02;;;;;;;;;;;;;;;;;;5087824;28;20002;-52
2022/10/22 10:14:28;;;;;;;;;;;;;;;;;;5068066;28;19930;-48
2022/10/22 10:16:53;;;;;;;;;;;;;;;;;;5074567;28;19915;-48
2022/10/22 10:19:19;;;;;;;;;;;;;;;;;;5082014;28;20340;-51
2022/10/22 10:21:45;;;;;;;;;;;;;;;;;;5080752;28;19991;-51
2022/10/22 10:24:11;;;;;;;;;;;;;;;;;;5083166;28;20276;-49
2022/10/22 10:26:37;;;;;;;;;;;;;;;;;;5081554;28;19915;-50
2022/10/22 10:29:03;;;;;;;;;;;;;;;;;;5087069;28;20339;-51
2022/10/22 10:31:29;;;;;;;;;;;;;;;;;;5080243;28;20375;-52
2022/10/22 10:33:55;;;;;;;;;;;;;;;;;;5078428;28;19912;-50
2022/10/22 10:36:21;;;;;;;;;;;;;;;;;;5085044;28;20028;-48
2022/10/22 10:38:46;;;;;;;;;;;;;;;;;;5081399;28;19944;-48
2022/10/22 10:41:12;;;;;;;;;;;;;;;;;;5073858;28;19913;-49
2022/10/22 10:43:38;;;;;;;;;;;;;;;;;;5070606;28;19966;-47
2022/10/22 10:46:06;;;;;;;;;;;;;;;;;;5084858;28;19915;-49
2022/10/22 10:48:32;;;;;;;;;;;;;;;;;;5086742;28;20347;-52
2022/10/22 10:50:58;;;;;;;;;;;;;;;;;;5090845;28;20003;-48
2022/10/22 10:53:24;;;;;;;;;;;;;;;;;;5090808;28;20359;-52
2022/10/22 10:55:50;;;;;;;;;;;;;;;;;;5090623;28;19942;-52
2022/10/22 10:58:16;;;;;;;;;;;;;;;;;;5089803;28;20371;-51
2022/10/22 11:00:41;;;;;;;;;;;;;;;;;;5078900;28;19913;-49
2022/10/22 11:03:07;;;;;;;;;;;;;;;;;;5071059;28;19935;-49
2022/10/22 11:05:33;;;;;;;;;;;;;;;;;;5081035;28;19915;-49
2022/10/22 11:07:59;;;;;;;;;;;;;;;;;;5091009;28;19915;-52
2022/10/22 11:10:25;;;;;;;;;;;;;;;;;;5077334;28;20407;-50
2022/10/22 11:12:51;;;;;;;;;;;;;;;;;;5088523;28;19916;-49
2022/10/22 11:15:17;;;;;;;;;;;;;;;;;;5080705;28;19927;-49
2022/10/22 11:17:43;;;;;;;;;;;;;;;;;;5084139;28;19904;-50
2022/10/22 11:20:09;;;;;;;;;;;;;;;;;;5086625;28;19912;-50
2022/10/22 11:22:35;;;;;;;;;;;;;;;;;;5073901;28;20002;-49
2022/10/22 11:25:01;;;;;;;;;;;;;;;;;;5087933;28;19911;-48
2022/10/22 11:27:27;;;;;;;;;;;;;;;;;;5088328;28;19939;-49
2022/10/22 11:29:53;;;;;;;;;;;;;;;;;;5081247;28;19934;-51
2022/10/22 11:32:18;;;;;;;;;;;;;;;;;;5084338;28;20405;-51
2022/10/22 11:34:44;;;;;;;;;;;;;;;;;;5086177;28;19968;-50
2022/10/22 11:37:10;;;;;;;;;;;;;;;;;;5088384;28;20364;-52
2022/10/22 11:39:36;;;;;;;;;;;;;;;;;;5084991;28;19951;-51
2022/10/22 11:42:02;;;;;;;;;;;;;;;;;;5075734;28;19975;-52
2022/10/22 11:44:29;;;;;;;;;;;;;;;;;;5086007;28;20276;-48
2022/10/22 11:46:55;;;;;;;;;;;;;;;;;;5088954;28;20302;-49
2022/10/22 11:49:20;;;;;;;;;;;;;;;;;;5089199;28;19908;-49
2022/10/22 11:51:46;;;;;;;;;;;;;;;;;;5083006;28;19908;-48
2022/10/22 11:54:12;;;;;;;;;;;;;;;;;;5082708;28;19916;-49
2022/10/22 11:56:38;;;;;;;;;;;;;;;;;;5073034;28;20006;-50
2022/10/22 11:59:04;;;;;;;;;;;;;;;;;;5079999;28;19956;-50
2022/10/22 12:01:30;;;;;;;;;;;;;;;;;;5076272;28;19915;-49
2022/10/22 12:03:57;;;;;;;;;;;;;;;;;;5091029;28;19911;-49
2022/10/22 12:06:23;;;;;;;;;;;;;;;;;;5089993;28;20379;-53
2022/10/22 12:08:49;;;;;;;;;;;;;;;;;;5077959;28;20001;-51
2022/10/22 12:11:15;;;;;;;;;;;;;;;;;;5070261;28;19908;-51
2022/10/22 12:13:41;;;;;;;;;;;;;;;;;;5078424;28;20372;-49
2022/10/22 12:16:07;;;;;;;;;;;;;;;;;;5070944;28;20001;-49
2022/10/22 12:18:33;;;;;;;;;;;;;;;;;;5085859;28;19914;-50
2022/10/22 12:20:59;;;;;;;;;;;;;;;;;;5076213;28;19909;-51
2022/10/22 12:23:24;;;;;;;;;;;;;;;;;;5081732;28;19915;-49
2022/10/22 12:25:50;;;;;;;;;;;;;;;;;;5085719;28;19908;-50
2022/10/22 12:28:16;;;;;;;;;;;;;;;;;;5085641;28;19940;-48
2022/10/22 12:30:42;;;;;;;;;;;;;;;;;;5074814;28;20426;-48
2022/10/22 12:33:08;;;;;;;;;;;;;;;;;;5088242;28;20015;-51
2022/10/22 12:35:34;;;;;;;;;;;;;;;;;;5088530;28;19930;-50
2022/10/22 12:38:00;;;;;;;;;;;;;;;;;;5082788;28;19962;-47
2022/10/22 12:40:26;;;;;;;;;;;;;;;;;;5076160;28;19908;-51
2022/10/22 12:42:52;;;;;;;;;;;;;;;;;;5086020;28;19981;-47
2022/10/22 12:45:18;;;;;;;;;;;;;;;;;;5089233;28;19990;-50
2022/10/22 12:47:44;;;;;;;;;;;;;;;;;;5088054;28;19960;-51
2022/10/22 12:50:10;;;;;;;;;;;;;;;;;;5089460;28;20256;-47
2022/10/22 12:52:36;;;;;;;;;;;;;;;;;;5089266;28;19908;-50
2022/10/22 12:55:02;;;;;;;;;;;;;;;;;;5087844;28;19943;-47
2022/10/22 12:57:28;;;;;;;;;;;;;;;;;;5088858;28;19953;-48
2022/10/22 12:59:54;;;;;;;;;;;;;;;;;;5087666;28;19908;-47
2022/10/22 13:02:23;;;;;;;;;;;;;;;;;;5083531;28;19908;-51
2022/10/22 13:04:49;;;;;;;;;;;;;;;;;;5089661;28;19904;-47
2022/10/22 13:07:15;;;;;;;;;;;;;;;;;;5088211;28;19904;-50
2022/10/22 13:09:41;;;;;;;;;;;;;;;;;;5074522;28;20375;-50
2022/10/22 13:12:07;;;;;;;;;;;;;;;;;;5071119;28;20006;-48
2022/10/22 13:14:33;;;;;;;;;;;;;;;;;;5074277;28;19912;-48
2022/10/22 13:16:58;;;;;;;;;;;;;;;;;;5073971;28;19914;-50
2022/10/22 13:19:24;;;;;;;;;;;;;;;;;;5075912;28;19904;-47
2022/10/22 13:21:52;;;;;;;;;;;;;;;;;;5069227;28;19908;-48
2022/10/22 13:24:18;;;;;;;;;;;;;;;;;;5072696;28;20003;-49
2022/10/22 13:26:44;;;;;;;;;;;;;;;;;;5080981;28;19994;-50
2022/10/22 13:29:10;;;;;;;;;;;;;;;;;;5089290;28;19922;-50
2022/10/22 13:31:37;;;;;;;;;;;;;;;;;;5089318;28;19908;-47
2022/10/22 13:34:04;;;;;;;;;;;;;;;;;;5082653;28;19966;-49
2022/10/22 13:36:30;;;;;;;;;;;;;;;;;;5068671;28;19908;-51
2022/10/22 13:38:56;;;;;;;;;;;;;;;;;;5082827;28;19915;-50
2022/10/22 13:41:22;;;;;;;;;;;;;;;;;;5082699;28;20508;-49
2022/10/22 13:43:48;;;;;;;;;;;;;;;;;;5088270;28;19928;-49
2022/10/22 13:46:14;;;;;;;;;;;;;;;;;;5087118;28;20336;-49
2022/10/22 13:48:40;;;;;;;;;;;;;;;;;;5083229;28;19915;-49
2022/10/22 13:51:06;;;;;;;;;;;;;;;;;;5082519;28;20291;-47
2022/10/22 13:53:32;;;;;;;;;;;;;;;;;;5080485;28;19913;-51
2022/10/22 13:55:58;;;;;;;;;;;;;;;;;;5078841;28;19978;-49
2022/10/22 13:58:24;;;;;;;;;;;;;;;;;;5090117;28;19914;-50
2022/10/22 14:00:50;;;;;;;;;;;;;;;;;;5076091;28;19915;-49
2022/10/22 14:03:15;;;;;;;;;;;;;;;;;;5087358;28;19985;-48
2022/10/22 14:05:41;;;;;;;;;;;;;;;;;;5076568;28;19914;-48
2022/10/22 14:08:07;;;;;;;;;;;;;;;;;;5089552;28;19966;-50
2022/10/22 14:10:33;;;;;;;;;;;;;;;;;;5091312;28;19953;-51
2022/10/22 14:12:59;;;;;;;;;;;;;;;;;;5082611;28;19918;-51
2022/10/22 14:15:25;;;;;;;;;;;;;;;;;;5076704;28;19915;-51
2022/10/22 14:17:51;;;;;;;;;;;;;;;;;;5086034;28;19911;-51
2022/10/22 14:20:18;;;;;;;;;;;;;;;;;;5073664;28;20394;-51
2022/10/22 14:22:43;;;;;;;;;;;;;;;;;;5089348;28;19946;-51
2022/10/22 14:25:09;;;;;;;;;;;;;;;;;;5081419;28;19948;-50
2022/10/22 14:27:37;;;;;;;;;;;;;;;;;;5079734;28;20364;-51
2022/10/22 14:30:03;;;;;;;;;;;;;;;;;;5082887;28;19911;-48
2022/10/22 14:32:28;;;;;;;;;;;;;;;;;;5082659;28;19916;-50
2022/10/22 14:34:54;;;;;;;;;;;;;;;;;;5080175;28;19927;-51
2022/10/22 14:37:22;;;;;;;;;;;;;;;;;;5084132;28;19995;-52
2022/10/22 14:39:51;;;;;;;;;;;;;;;;;;5091532;28;19911;-51
2022/10/22 14:42:17;;;;;;;;;;;;;;;;;;5082071;28;19915;-51
2022/10/22 14:44:43;;;;;;;;;;;;;;;;;;5083558;28;19916;-49
2022/10/22 14:47:09;;;;;;;;;;;;;;;;;;5091115;28;19918;-51
2022/10/22 14:49:34;;;;;;;;;;;;;;;;;;5073420;28;20089;-49
2022/10/22 14:52:01;;;;;;;1.30;0.70;;;;;;;;;;5076336;28;20433;-51
2022/10/22 14:54:27;;;;;;;1.52;0.80;;;;;;;;;;5071239;28;20407;-52
2022/10/22 14:56:53;;;;;;;0.93;0.60;;;;;;;;;;5079283;28;20013;-49
2022/10/22 14:59:19;;;;;;;0.82;0.60;;;;;;;;;;5087205;28;20032;-52
2022/10/22 15:01:45;;;;;;;0.55;0.55;;;;;;;;;;5086987;28;20020;-49
2022/10/22 15:04:11;;;;;;;0.88;0.60;;;;;;;;;;5089643;28;20388;-51
2022/10/22 15:06:37;;;;;;;0.77;0.60;;;;;;;;;;5076832;28;20433;-48
2022/10/22 15:09:03;;;;;;;0.60;0.60;;;;;;;;;;5087272;28;20434;-52
2022/10/22 15:11:29;;;;;;;0.95;0.60;;;;;;;;;;5084890;28;20020;-50
2022/10/22 15:13:55;;;;;;;0.50;0.50;;;;;;;;;;5088094;28;20031;-48
2022/10/22 15:16:21;;;;;;;0.55;0.50;;;;;;;;;;5086944;28;20016;-52
2022/10/22 15:18:47;;;;;;;1.20;0.68;;;;;;;;;;5082220;28;20024;-49
2022/10/22 15:21:15;;;;;;;0.50;0.50;;;;;;;;;;5084875;28;20028;-49
2022/10/22 15:23:41;;;;;;;1.33;0.60;;;;;;;;;;5089405;28;20051;-50
2022/10/22 15:26:07;;;;;;;0.60;0.60;;;;;;;;;;5086301;28;20036;-51
2022/10/22 15:28:33;;;;;;;1.40;0.60;;;;;;;;;;5084847;28;20191;-53
2022/10/22 15:31:00;;;;;;;0.55;0.55;;;;;;;;;;5080397;28;20036;-53
2022/10/22 15:33:26;;;;;;;0.77;0.70;;;;;;;;;;5082937;28;20067;-50
2022/10/22 15:35:52;;;;;;;0.57;0.57;;;;;;;;;;5087401;28;20028;-51
2022/10/22 15:38:18;;;;;;;0.40;0.40;;;;;;;;;;5086736;28;20085;-50
2022/10/22 15:40:45;;;;;;;0.50;0.50;;;;;;;;;;5088409;28;20031;-51
2022/10/22 15:43:11;;;;;;;0.52;0.50;;;;;;;;;;5068426;28;20121;-48
2022/10/22 15:45:37;;;;;;;1.27;0.82;;;;;;;;;;5069006;28;20036;-48
2022/10/22 15:48:04;;;;;;;0.70;0.60;;;;;;;;;;5073569;28;20024;-52
2022/10/22 15:50:30;;;;;;;0.90;0.60;;;;;;;;;;5080152;28;20028;-52
2022/10/22 15:52:56;;;;;;;0.73;0.60;;;;;;;;;;5077257;28;20032;-51
2022/10/22 15:55:22;;;;;;;1.17;0.68;;;;;;;;;;5078432;28;20034;-53
2022/10/22 15:57:53;;;;;;;0.95;0.80;;;;;;;;;;5087123;28;20122;-52
2022/10/22 16:00:19;;;;;;;0.60;0.50;;;;;;;;;;5074502;28;20061;-52
2022/10/22 16:02:45;;;;;;;0.73;0.68;;;;;;;;;;5067576;28;20628;-52
2022/10/22 16:05:11;;;;;;;0.50;0.47;;;;;;;;;;5075141;28;20032;-52
2022/10/22 16:07:38;;;;;;;1.17;0.68;;;;;;;;;;5084930;28;20036;-49
2022/10/22 16:10:06;;;;;;;1.05;0.70;;;;;;;;;;5085051;28;20469;-50
2022/10/22 16:12:34;;;;;;;0.90;0.70;;;;;;;;;;5086220;28;20445;-50
2022/10/22 16:15:00;;;;;;;2.42;0.80;;;;;;;;;;5085246;28;20377;-50
2022/10/22 16:17:27;;;;;;;1.13;0.70;;;;;;;;;;5085517;28;20020;-51
2022/10/22 16:19:54;;;;;;;1.30;0.70;;;;;;;;;;5087750;28;20399;-51
2022/10/22 16:22:20;;;;;;;2.13;1.10;;;;;;;;;;5086295;28;20047;-51